Time;durP1;ratioP1;P1;durP2;ratioP2;P2;SDS_P1;SDS_P2;PMS_P1;PMS_P2;Temp;Humidity;BMP_temperature;BMP_pressure;BME280_temperature;BME280_humidity;BME280_pressure;Samples;Min_cycle;Max_cycle;Signal;HPM_P1;HPM_P2
2021/01/12 00:00:30;;;;;;;26.70;23.90;;;5.70;99.90;;;;;;6198858;23;20422;-82
2021/01/12 00:02:59;;;;;;;23.60;21.10;;;5.70;99.90;;;;;;6200379;23;20894;-82
2021/01/12 00:05:27;;;;;;;26.37;23.47;;;5.70;99.90;;;;;;6198324;23;20488;-82
2021/01/12 00:07:55;;;;;;;24.83;22.23;;;5.70;99.90;;;;;;6197968;23;20433;-82
2021/01/12 00:10:23;;;;;;;24.53;22.03;;;5.70;99.90;;;;;;6198914;23;20748;-81
2021/01/12 00:12:54;;;;;;;24.90;22.20;;;5.80;99.90;;;;;;6200321;23;20446;-82
2021/01/12 00:15:21;;;;;;;24.93;22.30;;;5.80;99.90;;;;;;6199247;23;20399;-81
2021/01/12 00:17:49;;;;;;;23.53;21.00;;;5.80;99.90;;;;;;6200685;23;20414;-81
2021/01/12 00:20:16;;;;;;;22.97;20.57;;;5.80;99.90;;;;;;6204311;23;20407;-81
2021/01/12 00:22:43;;;;;;;24.50;22.00;;;5.80;99.90;;;;;;6204963;23;20446;-81
2021/01/12 00:25:12;;;;;;;22.17;19.77;;;5.80;99.90;;;;;;6206171;23;20414;-81
2021/01/12 00:27:53;;;;;;;22.83;20.53;;;5.80;99.90;;;;;;6202504;23;20404;-81
2021/01/12 00:30:21;;;;;;;22.33;19.70;;;5.80;99.90;;;;;;6234220;23;20749;-81
2021/01/12 00:32:49;;;;;;;21.40;18.90;;;5.90;99.90;;;;;;6199037;23;20410;-81
2021/01/12 00:35:16;;;;;;;23.10;20.70;;;5.80;99.90;;;;;;6204202;23;20830;-81
2021/01/12 00:37:45;;;;;;;22.50;20.07;;;5.90;99.90;;;;;;6237287;23;20478;-81
2021/01/12 00:40:14;;;;;;;22.57;20.17;;;5.90;99.90;;;;;;6196691;23;20406;-81
2021/01/12 00:42:42;;;;;;;21.33;19.13;;;5.90;99.90;;;;;;6235567;23;20392;-81
2021/01/12 00:45:13;;;;;;;22.70;20.03;;;5.90;99.90;;;;;;6197346;23;20920;-81
2021/01/12 00:48:01;;;;;;;21.43;19.13;;;5.90;99.90;;;;;;6197320;23;20446;-81
2021/01/12 00:50:30;;;;;;;21.87;19.03;;;5.90;99.90;;;;;;6195716;23;20403;-81
2021/01/12 00:52:58;;;;;;;21.43;19.13;;;5.90;99.90;;;;;;6196980;23;20413;-81
2021/01/12 00:55:28;;;;;;;22.40;19.47;;;6.00;99.90;;;;;;6235847;23;20426;-81
2021/01/12 00:57:55;;;;;;;20.53;18.33;;;6.00;99.90;;;;;;6197413;23;20425;-81
2021/01/12 01:00:22;;;;;;;19.90;17.80;;;6.00;99.90;;;;;;6196959;23;20418;-81
2021/01/12 01:02:50;;;;;;;21.63;19.33;;;6.00;99.90;;;;;;6233934;23;20430;-82
2021/01/12 01:05:18;;;;;;;22.50;19.50;;;6.00;99.90;;;;;;6198522;23;20464;-82
2021/01/12 01:07:47;;;;;;;21.70;19.40;;;6.00;99.90;;;;;;6232974;23;20754;-82
2021/01/12 01:10:14;;;;;;;22.87;19.83;;;6.10;99.90;;;;;;6235219;23;20420;-82
2021/01/12 01:12:43;;;;;;;22.50;19.97;;;6.10;99.90;;;;;;6195762;23;20415;-82
2021/01/12 01:15:11;;;;;;;20.77;18.60;;;6.10;99.90;;;;;;6196313;23;20422;-81
2021/01/12 01:17:38;;;;;;;21.70;19.40;;;6.10;99.90;;;;;;6195904;23;20411;-81
2021/01/12 01:20:07;;;;;;;22.97;20.57;;;6.10;99.90;;;;;;6195643;23;20444;-81
2021/01/12 01:22:34;;;;;;;24.03;20.50;;;6.10;99.90;;;;;;6233352;23;20396;-81
2021/01/12 01:25:01;;;;;;;22.87;19.67;;;6.10;99.90;;;;;;6196494;23;20407;-81
2021/01/12 01:27:32;;;;;;;21.17;18.87;;;6.10;99.90;;;;;;6195812;23;20411;-81
2021/01/12 01:30:00;;;;;;;22.70;20.40;;;6.10;99.90;;;;;;6195720;23;20457;-81
2021/01/12 01:32:27;;;;;;;22.40;20.03;;;6.10;99.90;;;;;;6234023;23;20398;-81
2021/01/12 01:34:55;;;;;;;21.63;19.33;;;6.10;99.90;;;;;;6196837;23;20446;-81
2021/01/12 01:37:22;;;;;;;22.33;19.67;;;6.10;99.90;;;;;;6196182;23;20418;-81
2021/01/12 01:39:49;;;;;;;22.63;20.17;;;6.10;99.90;;;;;;6233561;23;20493;-81
2021/01/12 01:42:16;;;;;;;22.67;20.10;;;6.10;99.90;;;;;;6197392;23;20461;-81
2021/01/12 01:44:43;;;;;;;21.93;19.50;;;6.10;99.90;;;;;;6196772;23;20431;-81
2021/01/12 01:47:12;;;;;;;22.57;20.17;;;6.10;99.90;;;;;;6196713;23;20450;-81
2021/01/12 01:49:39;;;;;;;21.93;19.67;;;6.10;99.90;;;;;;6196080;23;20466;-82
2021/01/12 01:52:06;;;;;;;20.30;18.20;;;6.10;99.90;;;;;;6197411;23;20468;-81
2021/01/12 01:54:34;;;;;;;23.07;20.57;;;6.20;99.90;;;;;;6197945;23;20450;-81
2021/01/12 01:57:01;;;;;;;21.17;18.97;;;6.20;99.90;;;;;;6196770;23;20418;-81
2021/01/12 01:59:28;;;;;;;21.93;19.67;;;6.20;99.90;;;;;;6191073;23;20463;-81
2021/01/12 02:01:55;;;;;;;20.37;18.17;;;6.20;99.90;;;;;;6191537;23;20465;-81
2021/01/12 02:04:27;;;;;;;21.10;18.50;;;6.30;99.90;;;;;;6191451;23;20441;-81
2021/01/12 02:06:59;;;;;;;21.20;19.00;;;6.20;99.90;;;;;;6190401;23;20414;-82
2021/01/12 02:09:34;;;;;;;20.17;17.97;;;6.20;99.90;;;;;;6190102;23;20995;-82
2021/01/12 02:12:07;;;;;;;21.13;18.97;;;6.20;99.90;;;;;;6194497;23;20873;-82
2021/01/12 02:14:39;;;;;;;19.90;17.50;;;6.20;99.90;;;;;;6195773;23;20411;-82
2021/01/12 02:17:09;;;;;;;22.00;18.50;;;6.20;99.90;;;;;;6196313;23;20413;-82
2021/01/12 02:19:38;;;;;;;19.10;16.80;;;6.30;99.90;;;;;;6195689;23;20492;-82
2021/01/12 02:22:07;;;;;;;20.27;18.07;;;6.30;99.90;;;;;;6231531;23;20426;-82
2021/01/12 02:24:37;;;;;;;19.67;17.20;;;6.20;99.90;;;;;;6194751;23;20437;-82
2021/01/12 02:27:05;;;;;;;19.90;16.73;;;6.30;99.90;;;;;;6195846;23;20483;-82
2021/01/12 02:29:33;;;;;;;18.87;16.97;;;6.30;99.90;;;;;;6194548;23;20529;-82
2021/01/12 02:32:01;;;;;;;19.83;17.10;;;6.30;99.90;;;;;;6198412;23;20412;-82
2021/01/12 02:34:32;;;;;;;19.43;17.43;;;6.30;99.90;;;;;;6195215;23;20419;-82
2021/01/12 02:37:00;;;;;;;19.43;17.40;;;6.30;99.90;;;;;;6209516;23;20402;-83
2021/01/12 02:39:29;;;;;;;18.60;16.60;;;6.30;99.90;;;;;;6245094;23;20421;-83
2021/01/12 02:41:57;;;;;;;19.80;17.80;;;6.30;99.90;;;;;;6200796;23;20415;-83
2021/01/12 02:44:25;;;;;;;19.77;17.77;;;6.30;99.90;;;;;;6199290;23;20418;-82
2021/01/12 02:46:54;;;;;;;20.37;18.17;;;6.30;99.90;;;;;;6199358;23;20419;-82
2021/01/12 02:49:22;;;;;;;18.93;16.73;;;6.40;99.90;;;;;;6200052;23;20446;-82
2021/01/12 02:51:50;;;;;;;18.30;16.40;;;6.30;99.90;;;;;;6237740;23;20940;-83
2021/01/12 02:54:17;;;;;;;18.50;16.50;;;6.30;99.90;;;;;;6200501;23;20415;-83
2021/01/12 02:56:44;;;;;;;19.23;17.20;;;6.40;99.90;;;;;;6199586;23;20456;-83
2021/01/12 02:59:12;;;;;;;20.00;17.90;;;6.40;99.90;;;;;;6198441;23;20493;-82
2021/01/12 03:01:40;;;;;;;19.10;17.00;;;6.40;99.90;;;;;;6197329;23;20441;-82
2021/01/12 03:04:08;;;;;;;17.10;15.30;;;6.40;99.90;;;;;;6196868;23;20502;-82
2021/01/12 03:06:35;;;;;;;19.23;16.60;;;6.40;99.90;;;;;;6197552;23;20414;-82
2021/01/12 03:09:03;;;;;;;18.50;16.50;;;6.40;99.90;;;;;;6196815;23;20489;-82
2021/01/12 03:11:30;;;;;;;17.90;16.00;;;6.40;99.90;;;;;;6196271;23;20877;-82
2021/01/12 03:13:58;;;;;;;19.10;16.40;;;6.40;99.90;;;;;;6196885;23;20406;-82
2021/01/12 03:16:26;;;;;;;18.83;16.07;;;6.40;99.90;;;;;;6234229;23;20448;-83
2021/01/12 03:18:56;;;;;;;15.20;13.60;;;6.50;99.90;;;;;;6198909;23;20447;-82
2021/01/12 03:21:25;;;;;;;17.90;15.83;;;6.40;99.90;;;;;;6199216;23;20411;-82
2021/01/12 03:23:52;;;;;;;18.20;15.00;;;6.40;99.90;;;;;;6199616;23;20448;-82
2021/01/12 03:26:20;;;;;;;18.43;16.50;;;6.40;99.90;;;;;;6200126;23;20748;-83
2021/01/12 03:28:49;;;;;;;19.27;17.07;;;6.40;99.90;;;;;;6200006;23;20469;-83
2021/01/12 03:31:41;;;;;;;16.90;14.40;;;6.50;99.90;;;;;;6199250;23;20418;-82
2021/01/12 03:34:09;;;;;;;15.90;14.13;;;6.60;99.90;;;;;;6199087;23;20410;-82
2021/01/12 03:36:36;;;;;;;16.15;14.45;;;6.50;99.90;;;;;;6197164;23;20885;-82
2021/01/12 03:39:08;;;;;;;16.47;13.83;;;6.50;99.90;;;;;;6196347;23;20199;-82
2021/01/12 03:41:35;;;;;;;14.93;11.67;;;6.50;99.90;;;;;;6196458;23;20455;-82
2021/01/12 03:44:03;;;;;;;13.00;11.63;;;6.50;99.90;;;;;;6196560;23;20426;-82
2021/01/12 03:46:34;;;;;;;15.45;12.90;;;6.50;99.90;;;;;;6195397;23;20757;-82
2021/01/12 03:49:01;;;;;;;13.80;11.70;;;6.50;99.90;;;;;;6196521;23;20725;-82
2021/01/12 03:51:29;;;;;;;15.87;12.50;;;6.60;99.90;;;;;;6197394;23;20913;-82
2021/01/12 03:53:58;;;;;;;13.83;12.23;;;6.60;99.90;;;;;;6195770;23;20418;-82
2021/01/12 03:56:25;;;;;;;14.10;12.20;;;6.60;99.90;;;;;;6196132;23;20462;-82
2021/01/12 03:58:52;;;;;;;14.83;12.80;;;6.60;99.90;;;;;;6233884;23;20906;-82
2021/01/12 04:01:20;;;;;;;14.40;12.23;;;6.50;99.90;;;;;;6195293;23;20477;-82
2021/01/12 04:03:48;;;;;;;14.97;11.90;;;6.60;99.90;;;;;;6195091;23;20423;-82
2021/01/12 04:06:17;;;;;;;13.83;12.33;;;6.60;99.90;;;;;;6196440;23;20414;-82
2021/01/12 04:08:46;;;;;;;13.97;12.50;;;6.50;99.90;;;;;;6196780;23;20513;-82
2021/01/12 04:11:15;;;;;;;13.87;11.93;;;6.50;99.90;;;;;;6196951;23;20418;-82
2021/01/12 04:13:42;;;;;;;14.97;12.73;;;6.60;99.90;;;;;;6196610;23;20446;-82
2021/01/12 04:16:09;;;;;;;16.70;12.63;;;6.50;99.90;;;;;;6232820;23;20399;-82
2021/01/12 04:18:43;;;;;;;15.27;13.30;;;6.60;99.90;;;;;;6196909;23;20941;-82
2021/01/12 04:21:13;;;;;;;13.27;11.27;;;6.60;99.90;;;;;;6197441;23;20456;-82
2021/01/12 04:23:41;;;;;;;16.80;12.20;;;6.60;99.90;;;;;;6197211;23;20414;-82
2021/01/12 04:26:09;;;;;;;14.47;11.67;;;6.60;99.90;;;;;;6197316;23;20426;-82
2021/01/12 04:28:36;;;;;;;14.33;12.20;;;6.50;99.90;;;;;;6197334;23;20438;-82
2021/01/12 04:31:04;;;;;;;14.30;12.03;;;6.60;99.90;;;;;;6196836;23;20778;-82
2021/01/12 04:33:31;;;;;;;14.83;11.93;;;6.60;99.90;;;;;;6195374;23;20410;-82
2021/01/12 04:35:58;;;;;;;13.67;12.00;;;6.60;99.90;;;;;;6196074;23;20418;-82
2021/01/12 04:38:27;;;;;;;14.00;11.37;;;6.60;99.90;;;;;;6196556;23;20431;-83
2021/01/12 04:40:54;;;;;;;12.87;11.50;;;6.60;99.90;;;;;;6198066;23;20894;-82
2021/01/12 04:43:23;;;;;;;14.80;12.13;;;6.60;99.90;;;;;;6197425;23;20486;-82
2021/01/12 04:45:50;;;;;;;13.23;11.83;;;6.60;99.90;;;;;;6196692;23;20411;-82
2021/01/12 04:48:17;;;;;;;14.23;12.73;;;6.60;99.90;;;;;;6234141;23;20473;-82
2021/01/12 04:50:46;;;;;;;14.93;12.57;;;6.60;99.90;;;;;;6234781;23;20428;-82
2021/01/12 04:53:13;;;;;;;13.60;11.40;;;6.60;99.90;;;;;;6198441;23;20433;-82
2021/01/12 04:55:43;;;;;;;15.10;12.30;;;6.60;99.90;;;;;;6195417;23;20514;-82
2021/01/12 04:58:13;;;;;;;14.80;12.77;;;6.60;99.90;;;;;;6195227;23;20929;-82
2021/01/12 05:00:48;;;;;;;12.10;10.50;;;6.60;99.90;;;;;;6195382;23;20874;-82
2021/01/12 05:03:39;;;;;;;13.80;11.90;;;6.60;99.90;;;;;;6196083;23;20419;-82
2021/01/12 05:06:11;;;;;;;15.90;13.10;;;6.60;99.90;;;;;;6146814;23;20476;-82
2021/01/12 05:08:54;;;;;;;13.83;11.60;;;6.70;99.90;;;;;;6195770;23;20750;-82
2021/01/12 05:11:42;;;;;;;13.40;11.90;;;6.70;99.90;;;;;;6194772;23;20482;-83
2021/01/12 05:14:10;;;;;;;13.87;12.20;;;6.70;99.90;;;;;;6195182;23;20409;-82
2021/01/12 05:16:46;;;;;;;14.47;12.53;;;6.60;99.90;;;;;;6194244;23;20419;-82
2021/01/12 05:19:19;;;;;;;14.50;12.43;;;6.60;99.90;;;;;;6230535;23;20406;-82
2021/01/12 05:21:47;;;;;;;16.37;14.60;;;6.60;99.90;;;;;;6193264;23;20433;-82
2021/01/12 05:24:18;;;;;;;15.37;13.70;;;6.60;99.90;;;;;;6192770;23;20414;-82
2021/01/12 05:26:47;;;;;;;16.43;14.53;;;6.70;99.90;;;;;;6230283;23;20386;-82
2021/01/12 05:29:15;;;;;;;15.27;13.67;;;6.70;99.90;;;;;;6193549;23;20622;-82
2021/01/12 05:31:45;;;;;;;14.30;12.80;;;6.70;99.90;;;;;;6230569;23;20736;-82
2021/01/12 05:34:16;;;;;;;13.60;11.90;;;6.70;99.90;;;;;;6194206;23;20855;-82
2021/01/12 05:36:49;;;;;;;13.00;11.60;;;6.70;99.90;;;;;;6231163;23;20462;-82
2021/01/12 05:39:18;;;;;;;12.07;10.63;;;6.70;99.90;;;;;;6193811;23;20434;-82
2021/01/12 05:41:47;;;;;;;10.33;8.77;;;6.70;99.90;;;;;;6193671;23;20415;-82
2021/01/12 05:44:20;;;;;;;8.77;7.88;;;6.70;99.90;;;;;;6193542;23;20418;-82
2021/01/12 05:46:50;;;;;;;8.70;7.80;;;6.70;99.90;;;;;;6193994;23;20168;-82
2021/01/12 05:49:22;;;;;;;10.70;9.60;;;6.70;99.90;;;;;;6193210;23;20440;-82
2021/01/12 05:51:54;;;;;;;9.57;8.67;;;6.70;99.90;;;;;;6193871;23;20402;-82
2021/01/12 05:54:36;;;;;;;10.10;9.00;;;6.70;99.90;;;;;;6192500;23;20417;-82
2021/01/12 05:57:05;;;;;;;10.70;9.03;;;6.80;99.90;;;;;;6230724;23;20151;-82
2021/01/12 05:59:33;;;;;;;10.40;8.83;;;6.80;99.90;;;;;;6193029;23;20436;-82
2021/01/12 06:02:03;;;;;;;11.00;9.90;;;6.80;99.90;;;;;;6193677;23;20470;-82
2021/01/12 06:04:34;;;;;;;11.67;10.47;;;6.70;99.90;;;;;;6193682;23;20799;-82
2021/01/12 06:07:03;;;;;;;11.97;10.50;;;6.70;99.90;;;;;;6194273;23;20402;-82
2021/01/12 06:09:31;;;;;;;9.93;8.40;;;6.70;99.90;;;;;;6194523;23;20449;-82
2021/01/12 06:11:58;;;;;;;11.00;8.50;;;6.70;99.90;;;;;;6197634;23;20418;-82
2021/01/12 06:14:28;;;;;;;9.13;6.47;;;6.70;99.90;;;;;;6198955;23;20422;-82
2021/01/12 06:16:56;;;;;;;4.47;3.53;;;6.70;99.90;;;;;;6198883;23;20418;-82
2021/01/12 06:19:24;;;;;;;3.10;2.70;;;6.70;99.90;;;;;;6235529;23;20482;-82
2021/01/12 06:22:14;;;;;;;4.10;2.10;;;6.70;99.90;;;;;;6235960;23;20393;-82
2021/01/12 06:24:56;;;;;;;5.93;2.07;;;6.60;99.90;;;;;;6197093;23;20424;-82
2021/01/12 06:27:25;;;;;;;3.33;1.70;;;6.60;99.90;;;;;;6195195;23;20430;-82
2021/01/12 06:29:54;;;;;;;1.60;1.40;;;6.50;99.90;;;;;;6195303;23;20505;-82
2021/01/12 06:32:22;;;;;;;2.50;1.40;;;6.40;99.90;;;;;;6195867;23;20403;-82
2021/01/12 06:34:51;;;;;;;2.90;1.60;;;6.50;99.90;;;;;;6192648;23;20406;-82
2021/01/12 06:37:21;;;;;;;1.87;1.10;;;6.40;99.90;;;;;;6166411;23;20430;-82
2021/01/12 06:39:49;;;;;;;2.93;1.23;;;6.40;99.90;;;;;;6163693;23;20428;-82
2021/01/12 06:42:21;;;;;;;3.33;1.20;;;6.40;99.90;;;;;;6200982;23;20467;-82
2021/01/12 06:44:50;;;;;;;2.47;1.50;;;6.40;99.90;;;;;;6165014;23;20427;-82
2021/01/12 06:47:22;;;;;;;3.13;1.20;;;6.40;99.90;;;;;;6201491;23;20399;-82
2021/01/12 06:49:50;;;;;;;3.10;1.27;;;6.30;99.90;;;;;;6164946;23;20475;-82
2021/01/12 06:52:18;;;;;;;4.10;1.53;;;6.30;99.90;;;;;;6165470;23;20759;-82
2021/01/12 06:54:48;;;;;;;4.20;1.73;;;6.30;99.90;;;;;;6165935;23;20428;-82
2021/01/12 06:57:16;;;;;;;3.57;1.27;;;6.20;99.90;;;;;;6165460;23;20411;-82
2021/01/12 06:59:46;;;;;;;3.23;1.67;;;6.20;99.90;;;;;;6164858;23;20922;-82
2021/01/12 07:02:19;;;;;;;2.10;1.10;;;6.10;99.90;;;;;;6164835;23;20779;-82
2021/01/12 07:04:58;;;;;;;3.20;1.57;;;6.10;99.90;;;;;;6166177;23;20434;-82
2021/01/12 07:07:28;;;;;;;4.13;1.50;;;6.00;99.90;;;;;;6167235;23;20456;-82
2021/01/12 07:09:57;;;;;;;2.97;1.20;;;5.90;99.90;;;;;;6167002;23;20470;-82
2021/01/12 07:12:30;;;;;;;3.83;1.10;;;5.90;99.90;;;;;;6169624;23;20458;-82
2021/01/12 07:14:59;;;;;;;5.67;1.30;;;5.80;99.90;;;;;;6206717;23;20379;-82
2021/01/12 07:17:29;;;;;;;3.50;1.33;;;5.70;99.90;;;;;;6207661;23;20399;-81
2021/01/12 07:20:15;;;;;;;6.00;1.10;;;5.60;99.90;;;;;;6169395;23;20442;-81
2021/01/12 07:22:51;;;;;;;5.10;1.40;;;5.60;99.90;;;;;;6168157;23;20418;-81
2021/01/12 07:25:21;;;;;;;4.87;1.37;;;5.50;99.90;;;;;;6167877;23;20419;-81
2021/01/12 07:28:01;;;;;;;8.20;2.42;;;5.50;99.90;;;;;;6168118;23;20730;-81
2021/01/12 07:30:31;;;;;;;4.00;1.47;;;5.40;99.90;;;;;;6198272;23;20187;-81
2021/01/12 07:33:01;;;;;;;2.43;1.23;;;5.40;99.90;;;;;;6169819;23;20419;-81
2021/01/12 07:35:35;;;;;;;3.63;1.20;;;5.40;99.90;;;;;;6168635;23;20416;-81
2021/01/12 07:38:03;;;;;;;7.60;1.40;;;5.30;99.90;;;;;;6201244;23;20411;-81
2021/01/12 07:40:31;;;;;;;3.30;2.00;;;5.40;99.90;;;;;;6164912;23;20408;-81
2021/01/12 07:43:00;;;;;;;4.60;1.40;;;5.30;99.90;;;;;;6164665;23;20408;-81
2021/01/12 07:45:32;;;;;;;5.00;1.50;;;5.20;99.90;;;;;;6164402;23;20732;-81
2021/01/12 07:48:02;;;;;;;5.80;2.43;;;5.20;99.90;;;;;;6164170;23;20420;-81
2021/01/12 07:50:31;;;;;;;6.97;1.90;;;5.20;99.90;;;;;;6164347;23;20438;-81
2021/01/12 07:52:59;;;;;;;4.17;1.40;;;5.20;99.90;;;;;;6164875;23;20466;-81
2021/01/12 07:55:27;;;;;;;5.10;2.03;;;5.20;99.90;;;;;;6164875;23;20443;-81
2021/01/12 07:57:57;;;;;;;8.37;2.37;;;5.20;99.90;;;;;;6165001;23;20893;-81
2021/01/12 08:00:25;;;;;;;5.33;2.37;;;5.20;99.90;;;;;;6164893;23;20446;-81
2021/01/12 08:02:54;;;;;;;4.37;2.10;;;5.20;99.90;;;;;;6201620;23;20418;-81
2021/01/12 08:05:24;;;;;;;4.53;2.27;;;5.10;99.90;;;;;;6165716;23;20430;-81
2021/01/12 08:07:59;;;;;;;7.53;2.33;;;5.20;99.90;;;;;;6164464;23;20423;-81
2021/01/12 08:10:27;;;;;;;8.87;2.40;;;5.20;99.90;;;;;;6164398;23;20523;-81
2021/01/12 08:13:05;;;;;;;6.83;2.70;;;5.20;99.90;;;;;;6163780;23;20419;-81
2021/01/12 08:15:33;;;;;;;8.20;2.80;;;5.20;99.90;;;;;;6163552;23;20960;-81
2021/01/12 08:18:01;;;;;;;7.23;2.20;;;5.10;99.90;;;;;;6163624;23;20435;-81
2021/01/12 08:20:31;;;;;;;5.57;3.17;;;5.10;99.90;;;;;;6200677;23;20398;-81
2021/01/12 08:22:58;;;;;;;8.13;2.70;;;5.20;99.90;;;;;;6164089;23;20427;-81
2021/01/12 08:25:26;;;;;;;6.37;2.33;;;5.10;99.90;;;;;;6199847;23;20816;-81
2021/01/12 08:27:55;;;;;;;5.00;2.77;;;5.20;99.90;;;;;;6164452;23;20506;-81
2021/01/12 08:30:24;;;;;;;11.63;2.90;;;5.10;99.90;;;;;;6165699;23;20481;-81
2021/01/12 08:32:56;;;;;;;4.20;1.83;;;5.10;99.90;;;;;;6166140;23;20415;-81
2021/01/12 08:35:27;;;;;;;3.50;1.80;;;5.10;99.90;;;;;;6165236;23;20423;-81
2021/01/12 08:37:57;;;;;;;4.07;1.87;;;5.10;99.90;;;;;;6163352;23;20415;-81
2021/01/12 08:40:46;;;;;;;6.23;2.20;;;5.10;99.90;;;;;;6164073;23;20462;-81
2021/01/12 08:43:15;;;;;;;7.20;2.20;;;5.10;99.90;;;;;;6163704;23;20498;-81
2021/01/12 08:45:43;;;;;;;11.33;2.97;;;5.10;99.90;;;;;;6200157;23;20459;-81
2021/01/12 08:48:13;;;;;;;6.73;2.40;;;5.10;99.90;;;;;;6163468;23;20764;-81
2021/01/12 08:50:40;;;;;;;7.70;2.87;;;5.10;99.90;;;;;;6199547;23;20423;-81
2021/01/12 08:53:09;;;;;;;7.80;2.70;;;5.10;99.90;;;;;;6199966;23;20399;-81
2021/01/12 08:55:37;;;;;;;10.30;5.37;;;5.20;99.90;;;;;;6162848;23;20416;-81
2021/01/12 08:58:06;;;;;;;11.07;3.50;;;5.20;99.90;;;;;;6163495;23;20968;-81
2021/01/12 09:00:35;;;;;;;5.60;3.47;;;5.20;99.90;;;;;;6163399;23;20419;-81
2021/01/12 09:03:03;;;;;;;6.77;3.20;;;5.20;99.90;;;;;;6163427;23;20469;-81
2021/01/12 09:05:33;;;;;;;9.10;3.37;;;5.20;99.90;;;;;;6163634;23;20514;-81
2021/01/12 09:08:03;;;;;;;12.17;3.57;;;5.20;99.90;;;;;;6200845;23;20392;-81
2021/01/12 09:10:32;;;;;;;9.23;3.40;;;5.20;99.90;;;;;;6164257;23;20432;-81
2021/01/12 09:12:59;;;;;;;7.10;3.07;;;5.20;99.90;;;;;;6163740;23;20411;-81
2021/01/12 09:15:31;;;;;;;11.30;2.83;;;5.20;99.90;;;;;;6163804;23;20423;-81
2021/01/12 09:18:04;;;;;;;6.50;3.10;;;5.20;99.90;;;;;;6164214;23;20424;-81
2021/01/12 09:20:31;;;;;;;10.27;3.13;;;5.20;99.90;;;;;;6164082;23;20412;-81
2021/01/12 09:23:09;;;;;;;6.60;2.80;;;5.20;99.90;;;;;;6200985;23;20400;-81
2021/01/12 09:25:38;;;;;;;6.80;3.20;;;5.20;99.90;;;;;;6164209;23;20968;-81
2021/01/12 09:28:10;;;;;;;9.13;2.50;;;5.20;99.90;;;;;;6164201;23;21053;-81
2021/01/12 09:30:41;;;;;;;8.30;2.50;;;5.20;99.90;;;;;;6163713;23;20927;-81
2021/01/12 09:33:12;;;;;;;10.20;2.80;;;5.30;99.90;;;;;;6164329;23;20797;-81
2021/01/12 09:35:39;;;;;;;4.87;2.70;;;5.20;99.90;;;;;;6164450;23;20420;-81
2021/01/12 09:38:06;;;;;;;8.10;2.37;;;5.20;99.90;;;;;;6164198;23;20447;-81
2021/01/12 09:40:34;;;;;;;12.73;3.50;;;5.20;99.90;;;;;;6164388;23;20416;-81
2021/01/12 09:43:02;;;;;;;7.20;2.77;;;5.20;99.90;;;;;;6201245;23;20435;-81
2021/01/12 09:45:30;;;;;;;9.40;3.00;;;5.20;99.90;;;;;;6164789;23;20757;-81
2021/01/12 09:47:57;;;;;;;7.20;2.90;;;5.20;99.90;;;;;;6164707;23;20419;-81
2021/01/12 09:50:25;;;;;;;7.30;3.17;;;5.20;99.90;;;;;;6165053;23;20522;-81
2021/01/12 09:52:56;;;;;;;10.03;3.17;;;5.20;99.90;;;;;;6165158;23;20411;-81
2021/01/12 09:55:23;;;;;;;8.07;2.90;;;5.20;99.90;;;;;;6164004;23;20422;-81
2021/01/12 09:57:52;;;;;;;14.33;3.93;;;5.20;99.90;;;;;;6164644;23;20615;-81
2021/01/12 10:00:21;;;;;;;8.77;4.10;;;5.20;99.90;;;;;;6201147;23;20446;-81
2021/01/12 10:02:48;;;;;;;9.37;3.63;;;5.20;99.90;;;;;;6163738;23;20419;-81
2021/01/12 10:05:15;;;;;;;12.65;3.80;;;5.10;99.90;;;;;;6200142;23;20403;-81
2021/01/12 10:07:43;;;;;;;8.03;2.97;;;5.30;99.90;;;;;;6164963;23;20168;-81
2021/01/12 10:10:11;;;;;;;6.93;3.53;;;5.20;99.90;;;;;;6165500;23;20435;-81
2021/01/12 10:12:40;;;;;;;11.37;4.20;;;5.20;99.90;;;;;;6200904;23;20487;-81
2021/01/12 10:15:08;;;;;;;10.77;3.60;;;5.20;99.90;;;;;;6165121;23;20450;-81
2021/01/12 10:17:36;;;;;;;13.73;4.40;;;5.20;99.90;;;;;;6164898;23;20420;-81
2021/01/12 10:20:04;;;;;;;7.50;3.50;;;5.20;99.90;;;;;;6165039;23;20992;-81
2021/01/12 10:22:31;;;;;;;12.03;3.23;;;5.20;99.90;;;;;;6165864;23;20433;-81
2021/01/12 10:25:00;;;;;;;9.13;3.67;;;5.20;99.90;;;;;;6165486;23;20475;-81
2021/01/12 10:27:36;;;;;;;7.30;2.70;;;5.20;99.90;;;;;;6165548;23;20902;-81
2021/01/12 10:30:10;;;;;;;13.10;4.30;;;5.20;99.90;;;;;;6165973;23;20538;-82
2021/01/12 10:32:38;;;;;;;7.40;3.80;;;5.20;99.90;;;;;;6168577;23;20423;-81
2021/01/12 10:35:07;;;;;;;5.87;3.00;;;5.20;99.90;;;;;;6171400;23;20759;-81
2021/01/12 10:37:35;;;;;;;8.43;4.47;;;5.30;99.90;;;;;;6172127;23;20423;-81
2021/01/12 10:40:03;;;;;;;8.07;2.60;;;5.30;99.90;;;;;;6165222;23;20443;-81
2021/01/12 10:42:32;;;;;;;5.90;2.60;;;5.30;99.90;;;;;;6163324;23;20423;-81
2021/01/12 10:44:59;;;;;;;5.60;2.10;;;5.30;99.90;;;;;;6202300;23;20407;-81
2021/01/12 10:47:31;;;;;;;9.63;3.37;;;5.30;99.90;;;;;;6166362;23;20482;-81
2021/01/12 10:49:59;;;;;;;7.27;2.77;;;5.30;99.90;;;;;;6166171;23;20493;-81
2021/01/12 10:52:27;;;;;;;6.23;2.00;;;5.30;99.90;;;;;;6165186;23;20462;-81
2021/01/12 10:54:55;;;;;;;8.27;1.80;;;5.30;99.90;;;;;;6166122;23;20510;-81
2021/01/12 10:57:22;;;;;;;6.67;2.70;;;5.40;99.90;;;;;;6164984;23;20419;-81
2021/01/12 10:59:49;;;;;;;4.77;1.80;;;5.40;99.90;;;;;;6201803;23;20423;-81
2021/01/12 11:02:18;;;;;;;4.30;1.70;;;5.40;99.90;;;;;;6167677;23;20510;-81
2021/01/12 11:04:45;;;;;;;4.87;1.67;;;5.40;99.90;;;;;;6165012;23;20423;-81
2021/01/12 11:07:14;;;;;;;4.80;1.83;;;5.50;99.90;;;;;;6165990;23;20788;-81
2021/01/12 11:09:44;;;;;;;7.27;1.47;;;5.40;99.90;;;;;;6166497;23;20474;-81
2021/01/12 11:12:13;;;;;;;3.57;1.20;;;5.40;99.90;;;;;;6166817;23;20419;-81
2021/01/12 11:14:40;;;;;;;5.60;1.70;;;5.50;99.90;;;;;;6165605;23;20419;-81
2021/01/12 11:17:12;;;;;;;8.63;2.20;;;5.50;99.90;;;;;;6165451;23;20783;-81
2021/01/12 11:19:40;;;;;;;9.27;1.60;;;5.50;99.90;;;;;;6167062;23;20436;-81
2021/01/12 11:22:08;;;;;;;4.23;1.40;;;5.60;99.90;;;;;;6167610;23;20411;-81
2021/01/12 11:24:36;;;;;;;7.43;1.90;;;5.60;99.90;;;;;;6165911;23;20431;-81
2021/01/12 11:27:05;;;;;;;6.20;1.50;;;5.60;99.90;;;;;;6166095;23;20748;-81
2021/01/12 11:29:34;;;;;;;4.67;1.40;;;5.60;99.90;;;;;;6166100;23;20446;-81
2021/01/12 11:32:04;;;;;;;3.80;1.53;;;5.60;99.90;;;;;;6166776;23;20434;-81
2021/01/12 11:34:33;;;;;;;3.97;1.50;;;5.60;99.90;;;;;;6166620;23;20455;-81
2021/01/12 11:37:00;;;;;;;4.60;1.90;;;5.70;99.90;;;;;;6202541;23;20478;-81
2021/01/12 11:39:28;;;;;;;2.73;1.40;;;5.70;99.90;;;;;;6165872;23;20875;-81
2021/01/12 11:41:56;;;;;;;6.00;1.80;;;5.70;99.90;;;;;;6164885;23;20474;-81
2021/01/12 11:44:25;;;;;;;8.60;2.53;;;5.70;99.90;;;;;;6165674;23;20466;-80
2021/01/12 11:46:52;;;;;;;8.93;1.83;;;5.70;99.90;;;;;;6165339;23;20431;-80
2021/01/12 11:49:19;;;;;;;8.30;2.03;;;5.70;99.90;;;;;;6165324;23;20440;-80
2021/01/12 11:51:48;;;;;;;4.50;1.27;;;5.70;99.90;;;;;;6202036;23;20435;-80
2021/01/12 11:54:17;;;;;;;4.80;1.83;;;5.70;99.90;;;;;;6165868;23;20435;-80
2021/01/12 11:56:50;;;;;;;8.47;1.43;;;5.70;99.90;;;;;;6165734;23;20423;-80
2021/01/12 11:59:19;;;;;;;5.73;1.30;;;5.60;99.90;;;;;;6166663;23;20436;-80
2021/01/12 12:01:48;;;;;;;4.00;1.50;;;5.70;99.90;;;;;;6167414;23;20443;-80
2021/01/12 12:04:16;;;;;;;6.40;1.50;;;5.70;99.90;;;;;;6167410;23;20426;-80
2021/01/12 12:06:47;;;;;;;6.83;1.87;;;5.70;99.90;;;;;;6170068;23;20461;-80
2021/01/12 12:09:15;;;;;;;4.05;1.27;;;5.70;99.90;;;;;;6170920;23;20414;-80
2021/01/12 12:11:43;;;;;;;4.00;1.43;;;5.70;99.90;;;;;;6168539;23;20184;-80
2021/01/12 12:14:11;;;;;;;3.70;1.30;;;5.70;99.90;;;;;;6170526;23;20709;-80
2021/01/12 12:16:43;;;;;;;3.20;1.00;;;5.70;99.90;;;;;;6206368;23;20463;-80
2021/01/12 12:19:11;;;;;;;4.50;1.10;;;5.70;99.90;;;;;;6169973;23;20446;-80
2021/01/12 12:21:51;;;;;;;1.80;0.80;;;5.80;99.90;;;;;;6169497;23;20160;-80
2021/01/12 12:24:22;;;;;;;4.93;1.07;;;5.80;99.90;;;;;;6204875;23;20406;-80
2021/01/12 12:26:51;;;;;;;6.20;1.10;;;5.80;99.90;;;;;;6168248;23;20412;-80
2021/01/12 12:29:18;;;;;;;2.90;1.10;;;5.90;99.90;;;;;;6206085;23;20424;-80
2021/01/12 12:31:53;;;;;;;2.90;1.07;;;5.90;99.90;;;;;;6205210;23;20764;-80
2021/01/12 12:34:22;;;;;;;4.07;1.10;;;5.90;99.90;;;;;;6168935;23;20415;-80
2021/01/12 12:36:50;;;;;;;3.27;1.00;;;5.90;99.90;;;;;;6207936;23;20400;-80
2021/01/12 12:39:18;;;;;;;3.90;1.33;;;5.90;99.90;;;;;;6171068;23;20749;-80
2021/01/12 12:41:45;;;;;;;6.27;2.70;;;5.90;99.90;;;;;;6172202;23;20745;-80
2021/01/12 12:44:15;;;;;;;2.87;1.27;;;5.90;99.90;;;;;;6170804;23;20420;-80
2021/01/12 12:46:45;;;;;;;7.10;1.83;;;5.90;99.90;;;;;;6170752;23;20416;-80
2021/01/12 12:49:14;;;;;;;3.87;1.23;;;6.00;99.90;;;;;;6169403;23;20523;-80
2021/01/12 12:51:41;;;;;;;5.80;1.17;;;6.00;99.90;;;;;;6170884;23;20440;-80
2021/01/12 12:54:09;;;;;;;2.60;1.10;;;5.90;99.90;;;;;;6207757;23;20879;-80
2021/01/12 12:56:36;;;;;;;3.17;1.30;;;6.00;99.90;;;;;;6208345;23;20415;-80
2021/01/12 12:59:04;;;;;;;2.93;1.30;;;6.00;99.90;;;;;;6170185;23;20435;-80